createdAt,value
2023-02-26T00:02:59.744Z,82.32
2023-02-26T00:08:06.080Z,81.72
2023-02-26T00:13:11.189Z,81.50
2023-02-26T00:18:16.196Z,81.54
2023-02-26T00:23:19.285Z,81.14
2023-02-26T00:28:22.348Z,79.92
2023-02-26T00:33:25.376Z,77.80
2023-02-26T00:38:32.744Z,78.28
2023-02-26T00:43:35.785Z,78.03
2023-02-26T00:48:50.569Z,78.93
2023-02-26T00:54:10.288Z,78.39
2023-02-26T00:59:13.128Z,78.80
2023-02-26T01:04:18.458Z,78.36
2023-02-26T01:09:34.329Z,78.77
2023-02-26T01:14:37.733Z,78.28
2023-02-26T01:20:00.743Z,77.03
2023-02-26T01:25:07.938Z,76.33
2023-02-26T01:30:11.777Z,75.52
2023-02-26T01:35:42.068Z,74.76
2023-02-26T01:41:15.624Z,73.31
2023-02-26T01:46:23.119Z,72.49
2023-02-26T01:51:53.479Z,72.83
2023-02-26T01:57:01.405Z,74.26
2023-02-26T02:02:06.758Z,74.27
2023-02-26T02:07:11.522Z,74.83
2023-02-26T02:12:30.536Z,75.21
2023-02-26T02:18:19.168Z,75.82
2023-02-26T02:23:40.224Z,75.92
2023-02-26T02:29:08.893Z,75.18
2023-02-26T02:34:22.346Z,75.80
2023-02-26T02:39:57.689Z,75.60
2023-02-26T02:45:26.918Z,74.38
2023-02-26T02:50:39.350Z,72.11
2023-02-26T02:55:58.858Z,71.33
2023-02-26T03:01:08.449Z,71.51
2023-02-26T03:06:11.503Z,71.91
2023-02-26T03:11:14.400Z,71.48
2023-02-26T03:16:47.378Z,72.01
2023-02-26T03:22:05.157Z,72.33
2023-02-26T03:27:23.326Z,72.25
2023-02-26T03:32:38.245Z,72.65
2023-02-26T03:37:47.062Z,72.86
2023-02-26T03:43:00.302Z,73.06
2023-02-26T03:48:08.067Z,73.18
2023-02-26T03:53:15.696Z,72.16
2023-02-26T03:58:18.953Z,71.81
2023-02-26T04:03:32.793Z,72.18
2023-02-26T04:08:36.519Z,73.21
2023-02-26T04:13:39.293Z,73.80
2023-02-26T04:18:42.774Z,74.26
2023-02-26T04:23:45.557Z,74.27
2023-02-26T04:28:48.403Z,74.39
2023-02-26T04:33:51.611Z,74.38
2023-02-26T04:38:54.722Z,74.75
2023-02-26T04:43:57.534Z,74.54
2023-02-26T04:49:00.386Z,74.78
2023-02-26T04:54:03.334Z,75.35
2023-02-26T04:59:06.173Z,75.02
2023-02-26T05:04:09.149Z,74.98
2023-02-26T05:09:11.974Z,75.24
2023-02-26T05:14:15.834Z,75.15
2023-02-26T05:19:18.654Z,75.24
2023-02-26T05:24:21.640Z,75.68
2023-02-26T05:29:24.530Z,75.64
2023-02-26T05:34:27.417Z,75.46
2023-02-26T05:39:30.297Z,75.55
2023-02-26T05:44:33.638Z,76.04
2023-02-26T05:49:36.378Z,75.87
2023-02-26T05:54:39.122Z,76.20
2023-02-26T05:59:41.926Z,75.57
2023-02-26T06:04:44.848Z,74.62
2023-02-26T06:09:47.642Z,73.33
2023-02-26T06:14:50.407Z,72.68
2023-02-26T06:19:53.607Z,72.49
2023-02-26T06:24:56.489Z,72.42
2023-02-26T06:29:59.293Z,71.48
2023-02-26T06:35:02.139Z,71.61
2023-02-26T06:40:05.957Z,72.08
2023-02-26T06:45:09.122Z,71.54
2023-02-26T06:50:12.547Z,71.56
2023-02-26T06:55:15.336Z,72.00
2023-02-26T07:00:18.475Z,72.25
2023-02-26T07:05:21.284Z,72.19
2023-02-26T07:10:25.522Z,72.41
2023-02-26T07:15:29.058Z,72.06
2023-02-26T07:20:32.871Z,71.66
2023-02-26T07:25:35.633Z,71.62
2023-02-26T07:30:38.489Z,71.38
2023-02-26T07:35:41.895Z,70.74
2023-02-26T07:40:44.689Z,70.89
2023-02-26T07:45:50.807Z,70.33
2023-02-26T07:50:55.058Z,69.08
2023-02-26T07:55:57.839Z,68.61
2023-02-26T08:01:00.696Z,67.72
2023-02-26T08:06:05.022Z,67.57
2023-02-26T08:11:07.956Z,67.98
2023-02-26T08:16:11.419Z,68.03
2023-02-26T08:21:14.336Z,67.56
2023-02-26T08:26:17.130Z,67.79
2023-02-26T08:31:20.237Z,69.00
2023-02-26T08:36:23.457Z,67.95
2023-02-26T08:41:29.891Z,68.11
2023-02-26T08:46:32.794Z,67.61
2023-02-26T08:51:35.660Z,68.21
2023-02-26T08:56:39.732Z,68.08
2023-02-26T09:01:43.088Z,67.78
2023-02-26T09:06:46.048Z,68.80
2023-02-26T09:11:48.862Z,68.39
2023-02-26T09:16:51.688Z,68.20
2023-02-26T09:21:54.408Z,68.09
2023-02-26T09:26:57.242Z,67.75
2023-02-26T09:32:00.547Z,67.79
2023-02-26T09:37:05.274Z,66.98
2023-02-26T09:42:40.651Z,66.94
2023-02-26T09:47:52.599Z,66.75
2023-02-26T09:53:18.542Z,66.18
2023-02-26T09:58:31.459Z,64.54
2023-02-26T10:04:11.086Z,64.64
2023-02-26T10:09:56.359Z,62.66
2023-02-26T10:15:39.583Z,59.72
2023-02-26T10:21:02.561Z,58.33
2023-02-26T10:26:14.279Z,58.08
2023-02-26T10:31:26.997Z,57.23
2023-02-26T10:36:40.664Z,57.35
2023-02-26T10:41:45.542Z,57.97
2023-02-26T10:47:02.765Z,58.58
2023-02-26T10:52:15.039Z,58.48
2023-02-26T10:57:27.358Z,56.74
2023-02-26T11:02:42.909Z,56.72
2023-02-26T11:07:50.155Z,55.69
2023-02-26T11:12:54.182Z,55.97
2023-02-26T11:18:00.228Z,54.51
2023-02-26T11:23:06.880Z,55.32
2023-02-26T11:28:23.760Z,57.56
2023-02-26T11:33:37.273Z,58.33
2023-02-26T11:38:41.364Z,57.69
2023-02-26T11:43:49.043Z,56.21
2023-02-26T11:48:56.794Z,55.03
2023-02-26T11:54:01.642Z,53.98
2023-02-26T11:59:19.752Z,53.22
2023-02-26T12:04:27.302Z,52.98
2023-02-26T12:09:30.633Z,52.92
2023-02-26T12:15:11.502Z,52.66
2023-02-26T12:20:32.866Z,52.21
2023-02-26T12:25:58.835Z,53.52
2023-02-26T12:31:32.363Z,55.49
2023-02-26T12:37:05.129Z,56.26
2023-02-26T12:42:22.074Z,56.82
2023-02-26T12:47:30.914Z,57.52
2023-02-26T12:53:14.456Z,57.62
2023-02-26T12:58:31.912Z,56.36
2023-02-26T13:03:34.764Z,55.43
2023-02-26T13:08:52.388Z,55.34
2023-02-26T13:14:05.159Z,55.73
2023-02-26T13:19:41.057Z,55.57
2023-02-26T13:24:55.737Z,55.53
2023-02-26T13:30:30.925Z,56.35
2023-02-26T13:35:38.528Z,56.87
2023-02-26T13:41:02.776Z,57.02
2023-02-26T13:46:24.597Z,57.17
2023-02-26T13:51:37.737Z,57.56
2023-02-26T13:56:40.816Z,57.83
2023-02-26T14:01:50.612Z,57.29
2023-02-26T14:07:15.587Z,57.67
2023-02-26T14:12:42.158Z,57.30
2023-02-26T14:17:49.365Z,57.57
2023-02-26T14:23:10.002Z,57.97
2023-02-26T14:28:25.125Z,57.23
2023-02-26T14:33:32.563Z,58.09
2023-02-26T14:38:41.138Z,58.19
2023-02-26T14:44:03.842Z,59.60
2023-02-26T14:49:16.029Z,59.64
2023-02-26T14:54:39.649Z,60.18
2023-02-26T15:00:19.219Z,60.96
2023-02-26T15:05:40.985Z,61.10
2023-02-26T15:11:25.147Z,61.39
2023-02-26T15:16:49.510Z,61.67
2023-02-26T15:22:18.528Z,61.35
2023-02-26T15:27:22.464Z,61.59
2023-02-26T15:32:43.579Z,61.83
2023-02-26T15:38:00.030Z,62.18
2023-02-26T15:43:05.326Z,62.14
2023-02-26T15:48:16.240Z,62.32
2023-02-26T15:53:34.739Z,62.85
2023-02-26T15:58:56.193Z,63.17
2023-02-26T16:04:06.115Z,63.53
2023-02-26T16:09:19.522Z,63.89
2023-02-26T16:14:27.673Z,64.41
2023-02-26T16:19:44.371Z,65.22
2023-02-26T16:24:54.106Z,65.72
2023-02-26T16:30:00.102Z,66.10
2023-02-26T16:35:21.755Z,66.98
2023-02-26T16:40:28.520Z,68.58
2023-02-26T16:45:37.205Z,74.99
2023-02-26T16:50:40.490Z,76.64
2023-02-26T16:55:51.617Z,77.25
2023-02-26T17:01:05.721Z,78.83
2023-02-26T17:06:12.563Z,78.89
2023-02-26T17:11:28.289Z,79.93
2023-02-26T17:16:31.472Z,80.82
2023-02-26T17:21:38.129Z,80.96
2023-02-26T17:26:41.114Z,81.82
2023-02-26T17:31:46.078Z,82.29
2023-02-26T17:36:49.646Z,83.43
2023-02-26T17:41:52.864Z,84.41
2023-02-26T17:46:56.084Z,84.45
2023-02-26T17:51:58.883Z,84.30
2023-02-26T17:57:02.346Z,84.13
2023-02-26T18:02:21.079Z,83.95
2023-02-26T18:07:25.118Z,83.79
2023-02-26T18:12:27.980Z,83.60
2023-02-26T18:17:34.358Z,83.72
2023-02-26T18:22:37.135Z,83.53
2023-02-26T18:27:42.399Z,83.89
2023-02-26T18:32:45.336Z,83.91
2023-02-26T18:37:48.260Z,84.17
2023-02-26T18:42:52.187Z,85.40
2023-02-26T18:47:54.947Z,85.59
2023-02-26T18:52:58.098Z,86.43
2023-02-26T18:58:01.164Z,86.98
2023-02-26T19:03:04.000Z,87.23
2023-02-26T19:08:10.466Z,87.43
2023-02-26T19:13:13.283Z,87.59
2023-02-26T19:18:16.566Z,87.53
2023-02-26T19:23:20.200Z,87.85
2023-02-26T19:28:23.279Z,88.26
2023-02-26T19:33:26.184Z,88.28
2023-02-26T19:38:29.098Z,88.39
2023-02-26T19:43:31.962Z,88.79
2023-02-26T19:48:34.764Z,89.53
2023-02-26T19:53:39.078Z,90.05
2023-02-26T19:58:46.301Z,90.70
2023-02-26T20:03:49.396Z,91.08
2023-02-26T20:08:52.761Z,91.17
2023-02-26T20:13:55.687Z,91.32
2023-02-26T20:18:58.506Z,91.44
2023-02-26T20:24:01.556Z,91.79
2023-02-26T20:29:04.530Z,92.20
2023-02-26T20:34:07.641Z,92.52
2023-02-26T20:39:10.421Z,92.60
2023-02-26T20:44:13.504Z,92.59
2023-02-26T20:49:17.422Z,92.96
2023-02-26T20:54:22.904Z,92.86
2023-02-26T20:59:25.760Z,92.72
2023-02-26T21:04:30.621Z,93.16
2023-02-26T21:09:35.232Z,93.15
2023-02-26T21:14:38.032Z,92.97
2023-02-26T21:19:40.883Z,92.93
2023-02-26T21:24:44.440Z,92.97
2023-02-26T21:29:47.266Z,93.22
2023-02-26T21:34:50.145Z,93.28
2023-02-26T21:39:53.560Z,93.56
2023-02-26T21:44:56.552Z,92.90
2023-02-26T21:49:59.325Z,92.54
2023-02-26T21:55:04.061Z,92.76
2023-02-26T22:00:10.304Z,92.80
2023-02-26T22:05:13.165Z,93.09
2023-02-26T22:10:16.266Z,93.41
2023-02-26T22:15:19.253Z,93.26
2023-02-26T22:20:22.100Z,93.36
2023-02-26T22:25:24.941Z,93.54
2023-02-26T22:30:27.816Z,93.28
2023-02-26T22:35:31.685Z,93.73
2023-02-26T22:40:34.611Z,93.58
2023-02-26T22:45:37.379Z,93.24
2023-02-26T22:50:40.172Z,93.04
2023-02-26T22:55:43.004Z,92.63
2023-02-26T23:00:45.718Z,92.71
2023-02-26T23:05:48.481Z,93.00
2023-02-26T23:10:55.805Z,92.83
2023-02-26T23:15:58.852Z,92.35
2023-02-26T23:21:01.755Z,92.66
2023-02-26T23:26:07.017Z,92.80
2023-02-26T23:31:10.158Z,92.98
2023-02-26T23:36:13.321Z,92.75
2023-02-26T23:41:16.158Z,92.41
2023-02-26T23:46:19.116Z,92.24
2023-02-26T23:51:21.887Z,92.29
2023-02-26T23:56:24.831Z,92.04
